createdAt,value
2022-11-04T00:01:27.631Z,1008.31
2022-11-04T00:06:29.823Z,1008.23
2022-11-04T00:11:28.922Z,1008.07
2022-11-04T00:16:31.027Z,1008.18
2022-11-04T00:21:30.115Z,1007.99
2022-11-04T00:26:31.223Z,1007.92
2022-11-04T00:31:32.369Z,1007.93
2022-11-04T00:36:37.356Z,1007.89
2022-11-04T00:41:34.491Z,1007.63
2022-11-04T00:46:36.597Z,1007.68
2022-11-04T00:51:36.696Z,1007.58
2022-11-04T00:56:37.088Z,1007.48
2022-11-04T01:01:37.290Z,1007.43
2022-11-04T01:06:37.472Z,1007.55
2022-11-04T01:11:36.583Z,1007.56
2022-11-04T01:16:37.707Z,1007.32
2022-11-04T01:21:38.825Z,1007.44
2022-11-04T01:26:38.920Z,1007.37
2022-11-04T01:31:40.048Z,1007.35
2022-11-04T01:36:42.145Z,1007.22
2022-11-04T01:41:41.266Z,1007.26
2022-11-04T01:46:42.365Z,1007.36
2022-11-04T01:51:44.503Z,1007.25
2022-11-04T01:56:50.736Z,1007.23
2022-11-04T02:01:43.937Z,1007.08
2022-11-04T02:06:46.179Z,1007.09
2022-11-04T02:11:46.298Z,1006.88
2022-11-04T02:16:45.463Z,1006.90
2022-11-04T02:21:47.573Z,1006.81
2022-11-04T02:26:46.694Z,1006.73
2022-11-04T02:31:47.797Z,1006.83
2022-11-04T02:36:48.888Z,1006.89
2022-11-04T02:41:50.977Z,1006.89
2022-11-04T02:46:51.140Z,1006.98
2022-11-04T02:51:50.240Z,1006.86
2022-11-04T02:56:51.433Z,1006.71
2022-11-04T03:01:53.619Z,1006.84
2022-11-04T03:06:52.767Z,1006.89
2022-11-04T03:11:53.886Z,1006.87
2022-11-04T03:16:56.007Z,1006.60
2022-11-04T03:21:56.135Z,1006.74
2022-11-04T03:26:56.262Z,1007.02
2022-11-04T03:31:56.395Z,1006.97
2022-11-04T03:36:55.779Z,1007.14
2022-11-04T03:41:57.892Z,1007.19
2022-11-04T03:46:58.038Z,1007.05
2022-11-04T03:51:58.145Z,1006.86
2022-11-04T03:56:57.296Z,1006.62
2022-11-04T04:01:58.652Z,1006.67
2022-11-04T04:07:00.054Z,1006.82
2022-11-04T04:12:02.221Z,1006.73
2022-11-04T04:17:02.360Z,1006.78
2022-11-04T04:22:01.466Z,1006.93
2022-11-04T04:27:03.568Z,1006.95
2022-11-04T04:32:03.702Z,1006.90
2022-11-04T04:37:01.789Z,1007.00
2022-11-04T04:42:03.916Z,1007.15
2022-11-04T04:47:04.019Z,1007.00
2022-11-04T04:52:04.227Z,1006.98
2022-11-04T04:57:04.326Z,1006.98
2022-11-04T05:02:03.666Z,1006.91
2022-11-04T05:07:04.763Z,1007.02
2022-11-04T05:12:05.857Z,1007.04
2022-11-04T05:17:07.018Z,1006.90
2022-11-04T05:22:09.149Z,1006.80
2022-11-04T05:27:08.265Z,1006.77
2022-11-04T05:32:10.363Z,1006.77
2022-11-04T05:37:09.459Z,1006.70
2022-11-04T05:42:11.620Z,1006.86
2022-11-04T05:47:10.712Z,1006.97
2022-11-04T05:52:11.839Z,1007.00
2022-11-04T05:57:12.947Z,1006.84
2022-11-04T06:02:15.152Z,1006.74
2022-11-04T06:07:15.344Z,1006.71
2022-11-04T06:12:16.459Z,1006.68
2022-11-04T06:17:16.613Z,1006.76
2022-11-04T06:22:16.722Z,1006.77
2022-11-04T06:27:17.001Z,1006.94
2022-11-04T06:32:17.149Z,1007.02
2022-11-04T06:37:17.301Z,1006.94
2022-11-04T06:42:16.450Z,1006.88
2022-11-04T06:47:22.100Z,1006.72
2022-11-04T06:52:17.551Z,1006.57
2022-11-04T06:57:19.698Z,1006.46
2022-11-04T07:02:20.975Z,1006.42
2022-11-04T07:07:20.165Z,1006.45
2022-11-04T07:12:22.257Z,1006.47
2022-11-04T07:17:21.366Z,1006.48
2022-11-04T07:22:22.493Z,1006.53
2022-11-04T07:27:24.650Z,1006.57
2022-11-04T07:32:23.765Z,1006.67
2022-11-04T07:37:26.861Z,1006.57
2022-11-04T07:42:26.151Z,1006.50
2022-11-04T07:47:28.268Z,1006.45
2022-11-04T07:52:28.437Z,1006.50
2022-11-04T07:57:27.528Z,1006.40
2022-11-04T08:02:33.968Z,1006.42
2022-11-04T08:07:28.610Z,1006.29
2022-11-04T08:12:30.706Z,1006.58
2022-11-04T08:17:29.797Z,1006.89
2022-11-04T08:22:33.170Z,1006.94
2022-11-04T08:27:33.329Z,1006.77
2022-11-04T08:32:33.428Z,1006.65
2022-11-04T08:37:32.528Z,1006.51
2022-11-04T08:42:33.623Z,1006.53
2022-11-04T08:47:35.793Z,1006.44
2022-11-04T08:52:34.944Z,1006.32
2022-11-04T08:57:37.038Z,1006.23
2022-11-04T09:02:37.161Z,1006.19
2022-11-04T09:07:37.272Z,1006.12
2022-11-04T09:12:37.375Z,1006.00
2022-11-04T09:17:36.506Z,1006.04
2022-11-04T09:22:40.605Z,1005.97
2022-11-04T09:27:39.556Z,1006.05
2022-11-04T09:32:38.672Z,1006.07
2022-11-04T09:37:39.757Z,1005.92
2022-11-04T09:42:41.882Z,1005.94
2022-11-04T09:47:42.031Z,1005.95
2022-11-04T09:52:41.145Z,1006.00
2022-11-04T09:57:43.293Z,1005.95
2022-11-04T10:02:44.404Z,1005.83
2022-11-04T10:07:43.514Z,1005.82
2022-11-04T10:12:45.774Z,1005.73
2022-11-04T10:17:44.927Z,1005.70
2022-11-04T10:22:47.071Z,1005.72
2022-11-04T10:27:46.197Z,1005.60
2022-11-04T10:32:47.284Z,1005.64
2022-11-04T10:37:49.377Z,1005.75
2022-11-04T10:42:49.489Z,1005.70
2022-11-04T10:47:48.584Z,1005.58
2022-11-04T10:52:50.705Z,1005.66
2022-11-04T10:57:50.793Z,1005.64
2022-11-04T11:02:49.899Z,1005.62
2022-11-04T11:07:51.997Z,1005.46
2022-11-04T11:12:52.184Z,1005.41
2022-11-04T11:17:51.414Z,1005.28
2022-11-04T11:22:53.522Z,1005.22
2022-11-04T11:27:53.611Z,1005.20
2022-11-04T11:32:53.715Z,1005.16
2022-11-04T11:37:53.860Z,1005.19
2022-11-04T11:42:52.979Z,1005.16
2022-11-04T11:47:54.140Z,1005.06
2022-11-04T11:52:57.232Z,1005.01
2022-11-04T12:02:57.442Z,1004.88
2022-11-04T12:12:57.865Z,1004.83
2022-11-04T12:17:59.144Z,1004.83
2022-11-04T12:23:01.232Z,1004.85
2022-11-04T12:28:00.321Z,1004.80
2022-11-04T12:33:02.414Z,1004.76
2022-11-04T12:38:01.564Z,1004.75
2022-11-04T12:43:02.672Z,1004.72
2022-11-04T12:48:03.754Z,1004.71
2022-11-04T12:53:06.316Z,1004.84
2022-11-04T12:58:05.574Z,1004.82
2022-11-04T13:03:07.986Z,1004.82
2022-11-04T13:08:11.303Z,1004.84
2022-11-04T13:13:07.585Z,1004.95
2022-11-04T13:18:08.918Z,1004.88
2022-11-04T13:23:08.153Z,1004.86
2022-11-04T13:28:10.370Z,1004.75
2022-11-04T13:33:11.861Z,1004.73
2022-11-04T13:38:10.127Z,1004.71
2022-11-04T13:43:09.648Z,1004.81
2022-11-04T13:48:09.030Z,1004.86
2022-11-04T13:53:12.560Z,1004.84
2022-11-04T13:58:11.842Z,1004.85
2022-11-04T14:03:11.442Z,1004.76
2022-11-04T14:08:10.835Z,1004.74
2022-11-04T14:13:12.999Z,1004.72
2022-11-04T14:18:13.648Z,1004.73
2022-11-04T14:23:12.775Z,1004.72
2022-11-04T14:28:14.881Z,1004.72
2022-11-04T14:33:14.429Z,1004.74
2022-11-04T14:38:17.075Z,1004.82
2022-11-04T14:43:14.163Z,1004.90
2022-11-04T14:48:16.156Z,1004.87
2022-11-04T14:53:16.596Z,1004.93
2022-11-04T14:58:15.716Z,1004.95
2022-11-04T15:03:52.136Z,1004.99
2022-11-04T15:08:19.749Z,1005.02
2022-11-04T15:13:19.868Z,1005.02
2022-11-04T15:18:21.835Z,1005.04
2022-11-04T15:23:18.899Z,1005.06
2022-11-04T15:28:21.016Z,1005.04
2022-11-04T15:33:22.156Z,1005.15
2022-11-04T15:38:21.242Z,1005.21
2022-11-04T15:43:23.414Z,1005.26
2022-11-04T15:48:22.612Z,1005.28
2022-11-04T15:53:24.897Z,1005.34
2022-11-04T15:58:24.137Z,1005.41
2022-11-04T16:03:25.261Z,1005.49
2022-11-04T16:08:26.383Z,1005.57
2022-11-04T16:13:28.784Z,1005.62
2022-11-04T16:18:28.122Z,1005.67
2022-11-04T16:23:29.357Z,1005.76
2022-11-04T16:28:30.424Z,1005.84
2022-11-04T16:33:31.520Z,1005.80
2022-11-04T16:38:32.853Z,1005.87
2022-11-04T16:43:35.052Z,1005.97
2022-11-04T16:48:34.249Z,1005.99
2022-11-04T16:53:36.628Z,1006.08
2022-11-04T16:58:35.908Z,1006.16
2022-11-04T17:03:37.041Z,1006.24
2022-11-04T17:08:39.241Z,1006.35
2022-11-04T17:13:38.344Z,1006.38
2022-11-04T17:18:40.661Z,1006.46
2022-11-04T17:23:40.912Z,1006.53
2022-11-04T17:28:40.024Z,1006.59
2022-11-04T17:33:42.271Z,1006.71
2022-11-04T17:38:41.791Z,1006.78
2022-11-04T17:43:40.962Z,1006.90
2022-11-04T17:48:42.271Z,1006.96
2022-11-04T17:53:43.721Z,1007.07
2022-11-04T17:58:45.061Z,1007.18
2022-11-04T18:03:46.192Z,1007.25
2022-11-04T18:08:47.515Z,1007.28
2022-11-04T18:13:49.690Z,1007.32
2022-11-04T18:18:53.266Z,1007.37
2022-11-04T18:23:49.742Z,1007.45
2022-11-04T18:28:50.084Z,1007.47
2022-11-04T18:33:50.273Z,1007.57
2022-11-04T18:38:49.554Z,1007.64
2022-11-04T18:43:51.965Z,1007.75
2022-11-04T18:48:52.391Z,1007.78
2022-11-04T18:53:52.795Z,1007.85
2022-11-04T18:58:53.172Z,1007.91
2022-11-04T19:03:52.639Z,1007.97
2022-11-04T19:08:55.038Z,1008.03
2022-11-04T19:13:55.444Z,1008.05
2022-11-04T19:18:54.847Z,1008.12
2022-11-04T19:23:57.234Z,1008.19
2022-11-04T19:28:57.688Z,1008.23
2022-11-04T19:33:58.146Z,1008.30
2022-11-04T19:38:57.556Z,1008.37
2022-11-04T19:43:58.905Z,1008.46
2022-11-04T19:49:00.081Z,1008.54
2022-11-04T19:54:14.659Z,1008.77
2022-11-04T19:59:06.071Z,1008.87
2022-11-04T20:04:01.900Z,1009.00
2022-11-04T20:09:03.296Z,1009.17
2022-11-04T20:14:08.055Z,1009.26
2022-11-04T20:19:05.633Z,1009.30
2022-11-04T20:24:09.049Z,1009.34
2022-11-04T20:29:08.476Z,1009.49
2022-11-04T20:34:10.352Z,1009.68
2022-11-04T20:39:09.951Z,1009.75
2022-11-04T20:44:10.110Z,1009.85
2022-11-04T20:49:09.397Z,1009.91
2022-11-04T20:54:10.843Z,1010.01
2022-11-04T20:59:14.116Z,1010.10
2022-11-04T21:04:15.157Z,1010.23
2022-11-04T21:09:14.350Z,1010.32
2022-11-04T21:14:15.574Z,1010.38
2022-11-04T21:19:17.091Z,1010.43
2022-11-04T21:24:16.320Z,1010.54
2022-11-04T21:29:17.725Z,1010.62
2022-11-04T21:34:16.928Z,1010.67
2022-11-04T21:39:18.084Z,1010.68
2022-11-04T21:44:19.187Z,1010.78
2022-11-04T21:49:20.365Z,1010.87
2022-11-04T21:54:22.463Z,1010.95
2022-11-04T21:59:22.544Z,1010.96
2022-11-04T22:04:21.852Z,1010.95
2022-11-04T22:09:23.100Z,1011.01
2022-11-04T22:14:25.217Z,1011.04
2022-11-04T22:19:24.699Z,1011.04
2022-11-04T22:24:26.795Z,1011.07
2022-11-04T22:29:24.968Z,1011.08
2022-11-04T22:34:24.162Z,1011.03
2022-11-04T22:39:25.544Z,1010.93
2022-11-04T22:44:26.716Z,1011.02
2022-11-04T22:49:28.137Z,1011.04
2022-11-04T22:54:29.360Z,1011.08
2022-11-04T22:59:30.493Z,1011.13
2022-11-04T23:04:31.739Z,1011.16
2022-11-04T23:09:33.852Z,1011.21
2022-11-04T23:14:36.941Z,1011.25
2022-11-04T23:19:34.275Z,1011.38
2022-11-04T23:24:35.541Z,1011.43
2022-11-04T23:29:36.757Z,1011.45
2022-11-04T23:34:38.067Z,1011.49
2022-11-04T23:39:39.329Z,1011.53
2022-11-04T23:44:40.414Z,1011.56
2022-11-04T23:49:41.607Z,1011.61
2022-11-04T23:54:43.192Z,1011.70
2022-11-04T23:59:44.401Z,1011.80
